Time;durP1;ratioP1;P1;durP2;ratioP2;P2;SDS_P1;SDS_P2;PMS_P1;PMS_P2;Temp;Humidity;BMP_temperature;BMP_pressure;BME280_temperature;BME280_humidity;BME280_pressure;Samples;Min_cycle;Max_cycle;Signal;HPM_P1;HPM_P2
2023/11/06 00:00:58;;;;;;;0.00;0.00;;;;;;;9.39;100.00;99215.59;5056364;28;20545;-77
2023/11/06 00:03:23;;;;;;;0.00;0.00;;;;;;;9.35;100.00;99209.84;5056076;28;20025;-78
2023/11/06 00:05:48;;;;;;;0.00;0.00;;;;;;;9.37;100.00;99221.19;5057380;28;20033;-81
2023/11/06 00:08:14;;;;;;;0.00;0.00;;;;;;;9.38;100.00;99227.38;5062040;28;20028;-80
2023/11/06 00:10:40;;;;;;;0.00;0.00;;;;;;;9.37;100.00;99229.25;5058663;28;20106;-79
2023/11/06 00:13:06;;;;;;;0.00;0.00;;;;;;;9.40;100.00;99228.81;5058321;28;20082;-79
2023/11/06 00:15:31;;;;;;;0.00;0.00;;;;;;;9.41;100.00;99233.13;5061157;28;20029;-84
2023/11/06 00:17:57;;;;;;;0.00;0.00;;;;;;;9.38;100.00;99232.75;5062966;28;20033;-82
2023/11/06 00:20:22;;;;;;;0.00;0.00;;;;;;;9.36;100.00;99248.25;5063796;28;20051;-83
2023/11/06 00:22:48;;;;;;;0.00;0.00;;;;;;;9.36;100.00;99259.81;5062055;28;20021;-83
2023/11/06 00:25:15;;;;;;;0.00;0.00;;;;;;;9.32;100.00;99272.00;5059835;28;20040;-84
2023/11/06 00:27:40;;;;;;;0.00;0.00;;;;;;;9.36;100.00;99254.44;5059985;28;20448;-78
2023/11/06 00:30:07;;;;;;;0.00;0.00;;;;;;;9.33;100.00;99275.53;5055570;28;20017;-80
2023/11/06 00:32:33;;;;;;;0.00;0.00;;;;;;;9.28;100.00;99265.41;5056241;28;20028;-78
2023/11/06 00:34:58;;;;;;;0.00;0.00;;;;;;;9.28;100.00;99265.41;5056090;28;20332;-77
2023/11/06 00:37:23;;;;;;;0.00;0.00;;;;;;;9.23;100.00;99278.63;5057140;28;20043;-80
2023/11/06 00:39:49;;;;;;;0.00;0.00;;;;;;;9.21;100.00;99272.66;5058012;28;20104;-79
2023/11/06 00:42:15;;;;;;;0.00;0.00;;;;;;;9.20;100.00;99281.75;5078606;28;20434;-81
2023/11/06 00:44:40;;;;;;;0.00;0.00;;;;;;;9.17;100.00;99280.31;5078606;28;20025;-81
2023/11/06 00:47:06;;;;;;;0.00;0.00;;;;;;;9.14;100.00;99285.28;5078223;28;20032;-80
2023/11/06 00:49:31;;;;;;;0.00;0.00;;;;;;;9.13;100.00;99289.00;5077270;28;20078;-82
2023/11/06 00:51:57;;;;;;;0.00;0.00;;;;;;;9.14;100.00;99285.28;5078548;28;20091;-81
2023/11/06 00:54:23;;;;;;;0.00;0.00;;;;;;;9.14;100.00;99293.34;5079276;28;20103;-80
2023/11/06 00:56:49;;;;;;;0.00;0.00;;;;;;;9.13;100.00;99297.03;5079577;28;20039;-81
2023/11/06 00:59:16;;;;;;;0.00;0.00;;;;;;;9.16;100.00;99300.16;5068984;28;20031;-82
2023/11/06 01:01:43;;;;;;;0.00;0.00;;;;;;;9.21;100.00;99286.06;5067496;28;20063;-81
2023/11/06 01:04:09;;;;;;;0.00;0.00;;;;;;;9.24;100.00;99296.38;5079106;28;20724;-82
2023/11/06 01:06:35;;;;;;;0.00;0.00;;;;;;;9.22;100.00;99306.53;5079450;28;20020;-82
2023/11/06 01:09:00;;;;;;;0.00;0.00;;;;;;;9.23;100.00;99306.31;5075082;28;20027;-82
2023/11/06 01:11:26;;;;;;;0.00;0.00;;;;;;;9.20;100.00;99306.72;5067329;28;20074;-82
2023/11/06 01:13:51;;;;;;;0.00;0.00;;;;;;;9.21;100.00;99307.56;5064852;28;20035;-82
2023/11/06 01:16:17;;;;;;;0.00;0.00;;;;;;;9.24;100.00;99309.81;5059381;28;20044;-83
2023/11/06 01:18:45;;;;;;;0.00;0.00;;;;;;;9.20;100.00;99325.53;5059283;28;20080;-81
2023/11/06 01:21:10;;;;;;;0.00;0.00;;;;;;;9.15;100.00;99329.88;5059288;28;20025;-80
2023/11/06 01:23:35;;;;;;;0.00;0.00;;;;;;;9.10;100.00;99335.84;5060786;28;20462;-80
2023/11/06 01:26:01;;;;;;;0.00;0.00;;;;;;;9.12;100.00;99330.28;5060688;28;20025;-82
2023/11/06 01:28:27;;;;;;;0.00;0.00;;;;;;;9.11;100.00;99334.00;5072893;28;20017;-79
2023/11/06 01:30:52;;;;;;;0.00;0.00;;;;;;;9.12;100.00;99341.03;5077230;28;20025;-81
2023/11/06 01:33:18;;;;;;;0.00;0.00;;;;;;;9.11;100.00;99334.84;5075197;28;20037;-79
2023/11/06 01:35:44;;;;;;;0.00;0.00;;;;;;;9.12;100.00;99352.59;5059102;28;20025;-81
2023/11/06 01:38:09;;;;;;;0.00;0.00;;;;;;;9.13;100.00;99351.53;5058333;28;20056;-80
2023/11/06 01:40:35;;;;;;;0.00;0.00;;;;;;;9.14;100.00;99349.72;5058322;28;20593;-81
2023/11/06 01:43:05;;;;;;;0.00;0.00;;;;;;;9.14;100.00;99357.75;5057920;28;20025;-81
2023/11/06 01:45:34;;;;;;;0.00;0.00;;;;;;;9.13;100.00;99350.72;5063353;28;20074;-80
2023/11/06 01:48:03;;;;;;;0.00;0.00;;;;;;;9.16;100.00;99358.34;5078127;28;20056;-82
2023/11/06 01:50:31;;;;;;;0.00;0.00;;;;;;;9.19;100.00;99358.78;5058703;28;20394;-80
2023/11/06 01:52:58;;;;;;;0.00;0.00;;;;;;;9.20;100.00;99364.97;5076534;28;20724;-79
2023/11/06 01:55:27;;;;;;;0.00;0.00;;;;;;;9.27;100.00;99368.47;5076128;28;20033;-79
2023/11/06 01:57:52;;;;;;;0.00;0.00;;;;;;;9.29;100.00;99366.38;5075572;28;20028;-80
2023/11/06 02:00:19;;;;;;;0.00;0.00;;;;;;;9.34;100.00;99366.56;5074209;28;20032;-79
2023/11/06 02:02:46;;;;;;;0.00;0.00;;;;;;;9.36;100.00;99369.06;5055157;28;20043;-79
2023/11/06 02:05:12;;;;;;;0.00;0.00;;;;;;;9.31;100.00;99372.38;5055300;28;20055;-80
2023/11/06 02:07:38;;;;;;;0.00;0.00;;;;;;;9.32;100.00;99379.41;5058077;28;20090;-80
2023/11/06 02:10:03;;;;;;;0.00;0.00;;;;;;;9.34;100.00;99366.56;5055281;28;20594;-78
2023/11/06 02:12:29;;;;;;;0.00;0.00;;;;;;;9.32;100.00;99381.25;5056406;28;20036;-79
2023/11/06 02:14:55;;;;;;;0.00;0.00;;;;;;;9.27;100.00;99373.84;5058405;28;20025;-79
2023/11/06 02:17:21;;;;;;;0.00;0.00;;;;;;;9.24;100.00;99382.28;5058894;28;20120;-80
2023/11/06 02:19:47;;;;;;;0.00;0.00;;;;;;;9.29;100.00;99384.34;5059404;28;20068;-79
2023/11/06 02:22:15;;;;;;;0.00;0.00;;;;;;;9.29;100.00;99385.16;5059876;28;20025;-81
2023/11/06 02:24:41;;;;;;;0.00;0.00;;;;;;;9.28;100.00;99380.84;5058762;28;20017;-83
2023/11/06 02:27:08;;;;;;;0.00;0.00;;;;;;;9.25;100.00;99389.31;5060219;28;20081;-80
2023/11/06 02:29:33;;;;;;;0.00;0.00;;;;;;;9.24;100.00;99387.66;5058544;28;20440;-80
2023/11/06 02:31:59;;;;;;;0.00;0.00;;;;;;;9.22;100.00;99400.47;5058957;28;20282;-80
2023/11/06 02:34:25;;;;;;;0.00;0.00;;;;;;;9.24;100.00;99390.34;5062455;28;20032;-80
2023/11/06 02:36:50;;;;;;;0.00;0.00;;;;;;;9.18;100.00;99399.22;5062203;28;20125;-80
2023/11/06 02:39:15;;;;;;;0.00;0.00;;;;;;;9.13;100.00;99396.34;5061780;28;20465;-79
2023/11/06 02:41:40;;;;;;;0.00;0.00;;;;;;;9.08;100.00;99393.47;5062379;28;20118;-79
2023/11/06 02:44:06;;;;;;;0.00;0.00;;;;;;;9.03;100.00;99396.78;5068768;28;20029;-78
2023/11/06 02:46:31;;;;;;;0.00;0.00;;;;;;;9.02;100.00;99404.00;5076479;28;20025;-78
2023/11/06 02:48:58;;;;;;;0.00;0.00;;;;;;;8.99;100.00;99407.09;5078356;28;20092;-79
2023/11/06 02:51:23;;;;;;;0.00;0.00;;;;;;;8.99;100.00;99417.81;5075830;28;20082;-78
2023/11/06 02:53:49;;;;;;;0.00;0.00;;;;;;;8.99;100.00;99419.69;5069803;28;20029;-77
2023/11/06 02:56:14;;;;;;;0.00;0.00;;;;;;;8.95;100.00;99427.34;5061988;28;20032;-77
2023/11/06 02:58:40;;;;;;;0.00;0.00;;;;;;;8.92;100.00;99424.22;5043489;28;20088;-79
2023/11/06 03:01:05;;;;;;;0.00;0.00;;;;;;;8.88;100.00;99431.06;5063248;28;20033;-79
2023/11/06 03:03:31;;;;;;;0.00;0.00;;;;;;;8.85;100.00;99434.97;5081441;28;20039;-79
2023/11/06 03:05:56;;;;;;;0.00;0.00;;;;;;;8.83;100.00;99436.19;5079605;28;20032;-79
2023/11/06 03:08:22;;;;;;;0.00;0.00;;;;;;;8.78;100.00;99436.81;5079799;28;20217;-78
2023/11/06 03:10:48;;;;;;;0.00;0.00;;;;;;;8.82;100.00;99437.22;5080584;28;20047;-78
2023/11/06 03:13:13;;;;;;;0.00;0.00;;;;;;;8.80;100.00;99434.75;5080146;28;20439;-79
2023/11/06 03:15:38;;;;;;;0.00;0.00;;;;;;;8.82;100.00;99432.69;5080883;28;20029;-78
2023/11/06 03:18:04;;;;;;;0.00;0.00;;;;;;;8.83;100.00;99439.72;5080937;28;20033;-77
2023/11/06 03:20:30;;;;;;;0.00;0.00;;;;;;;8.87;100.00;99450.84;5072531;28;20035;-77
2023/11/06 03:22:55;;;;;;;0.00;0.00;;;;;;;8.87;100.00;99443.63;5074267;28;20055;-77
2023/11/06 03:25:21;;;;;;;0.00;0.00;;;;;;;8.85;100.00;99451.06;5075298;28;20035;-77
2023/11/06 03:27:48;;;;;;;0.00;0.00;;;;;;;8.83;100.00;99450.44;5076665;28;20063;-78
2023/11/06 03:30:14;;;;;;;0.00;0.00;;;;;;;8.83;100.00;99450.44;5076224;28;20029;-79
2023/11/06 03:32:39;;;;;;;0.00;0.00;;;;;;;8.81;100.00;99446.31;5057521;28;20112;-78
2023/11/06 03:35:06;;;;;;;0.00;0.00;;;;;;;8.90;100.00;99437.88;5056701;28;20771;-80
2023/11/06 03:37:32;;;;;;;0.00;0.00;;;;;;;8.87;100.00;99442.78;5056244;28;20049;-80
2023/11/06 03:39:57;;;;;;;0.00;0.00;;;;;;;8.84;100.00;99451.25;5056605;28;20574;-77
2023/11/06 03:42:23;;;;;;;0.00;0.00;;;;;;;8.85;100.00;99443.00;5056704;28;20162;-79
2023/11/06 03:44:48;;;;;;;0.00;0.00;;;;;;;8.87;100.00;99442.78;5058889;28;20482;-76
2023/11/06 03:47:14;;;;;;;0.00;0.00;;;;;;;8.91;100.00;99452.09;5081040;28;20032;-77
2023/11/06 03:49:39;;;;;;;0.00;0.00;;;;;;;8.90;100.00;99439.69;5081256;28;20024;-79
2023/11/06 03:52:10;;;;;;;0.00;0.00;;;;;;;8.95;100.00;99442.59;5080854;28;20028;-80
2023/11/06 03:54:36;;;;;;;0.00;0.00;;;;;;;8.91;100.00;99444.88;5086167;28;20084;-80
2023/11/06 03:57:01;;;;;;;0.00;0.00;;;;;;;8.86;100.00;99444.66;5088693;28;20028;-79
2023/11/06 03:59:27;;;;;;;0.00;0.00;;;;;;;8.85;100.00;99447.56;5085748;28;20037;-81
2023/11/06 04:01:53;;;;;;;0.00;0.00;;;;;;;8.79;100.00;99454.53;5086738;28;20029;-79
2023/11/06 04:04:18;;;;;;;0.00;0.00;;;;;;;8.76;100.00;99465.69;5093920;28;20043;-79
2023/11/06 04:06:44;;;;;;;0.00;0.00;;;;;;;8.70;100.00;99461.16;5090136;28;20020;-80
2023/11/06 04:09:10;;;;;;;0.00;0.00;;;;;;;8.70;100.00;99463.81;5059890;28;20107;-81
2023/11/06 04:11:35;;;;;;;0.00;0.00;;;;;;;8.71;100.00;99462.78;5076875;28;20032;-82
2023/11/06 04:14:00;;;;;;;0.00;0.00;;;;;;;8.67;100.00;99467.75;5058053;28;20029;-79
2023/11/06 04:16:26;;;;;;;0.00;0.00;;;;;;;8.65;100.00;99469.78;5060110;28;20518;-80
2023/11/06 04:18:51;;;;;;;0.00;0.00;;;;;;;8.64;100.00;99451.25;5058469;28;20029;-79
2023/11/06 04:21:17;;;;;;;0.00;0.00;;;;;;;8.61;100.00;99459.66;5058156;28;20095;-80
2023/11/06 04:23:42;;;;;;;0.00;0.00;;;;;;;8.58;100.00;99463.59;5059431;28;20036;-79
2023/11/06 04:26:08;;;;;;;0.00;0.00;;;;;;;8.54;100.00;99465.84;5057781;28;20033;-80
2023/11/06 04:28:33;;;;;;;0.00;0.00;;;;;;;8.48;100.00;99468.53;5058723;28;20020;-79
2023/11/06 04:30:59;;;;;;;0.00;0.00;;;;;;;8.45;100.00;99468.91;5059276;28;20029;-81
2023/11/06 04:33:24;;;;;;;0.00;0.00;;;;;;;8.41;100.00;99463.13;5060012;28;20048;-77
2023/11/06 04:35:50;;;;;;;0.00;0.00;;;;;;;8.47;100.00;99472.22;5055115;28;20151;-78
2023/11/06 04:38:15;;;;;;;0.00;0.00;;;;;;;8.43;100.00;99479.03;5055908;28;20057;-79
2023/11/06 04:40:40;;;;;;;0.00;0.00;;;;;;;8.42;100.00;99486.22;5058655;28;20082;-79
2023/11/06 04:43:06;;;;;;;0.00;0.00;;;;;;;8.44;100.00;99489.53;5057210;28;20017;-79
2023/11/06 04:45:31;;;;;;;0.00;0.00;;;;;;;8.40;100.00;99480.25;5055181;28;20021;-80
2023/11/06 04:47:57;;;;;;;0.00;0.00;;;;;;;8.40;100.00;99485.63;5056198;28;20032;-79
2023/11/06 04:50:22;;;;;;;0.00;0.00;;;;;;;8.46;100.00;99490.16;5055879;28;20021;-79
2023/11/06 04:52:47;;;;;;;0.00;0.00;;;;;;;8.44;100.00;99489.53;5055723;28;20060;-77
2023/11/06 04:55:13;;;;;;;0.00;0.00;;;;;;;8.44;100.00;99481.50;5059721;28;20020;-81
2023/11/06 04:57:38;;;;;;;0.00;0.00;;;;;;;8.42;100.00;99486.22;5075453;28;20020;-81
2023/11/06 05:00:06;;;;;;;0.00;0.00;;;;;;;8.43;100.00;99493.25;5074388;28;20028;-78
2023/11/06 05:02:31;;;;;;;0.00;0.00;;;;;;;8.43;100.00;99490.56;5077043;28;20028;-79
2023/11/06 05:04:56;;;;;;;0.00;0.00;;;;;;;8.42;100.00;99491.59;5075734;28;20024;-82
2023/11/06 05:07:22;;;;;;;0.00;0.00;;;;;;;8.42;100.00;99496.94;5078954;28;20080;-79
2023/11/06 05:09:47;;;;;;;0.00;0.00;;;;;;;8.42;100.00;99510.34;5077253;28;20040;-81
2023/11/06 05:12:13;;;;;;;0.00;0.00;;;;;;;8.46;100.00;99486.66;5076985;28;20020;-81
2023/11/06 05:14:38;;;;;;;0.00;0.00;;;;;;;8.42;100.00;99491.59;5076502;28;20029;-79
2023/11/06 05:17:05;;;;;;;0.00;0.00;;;;;;;8.45;100.00;99498.41;5075585;28;20029;-78
2023/11/06 05:19:31;;;;;;;0.00;0.00;;;;;;;8.46;100.00;99514.31;5075079;28;20024;-77
2023/11/06 05:21:56;;;;;;;0.00;0.00;;;;;;;8.46;100.00;99516.97;5075546;28;20024;-78
2023/11/06 05:24:23;;;;;;;0.00;0.00;;;;;;;8.46;100.00;99514.31;5075713;28;20025;-77
2023/11/06 05:26:49;;;;;;;0.00;0.00;;;;;;;8.46;100.00;99514.31;5073366;28;20074;-76
2023/11/06 05:29:14;;;;;;;0.00;0.00;;;;;;;8.49;100.00;99537.22;5076823;28;20055;-81
2023/11/06 05:31:40;;;;;;;0.00;0.00;;;;;;;8.51;100.00;99517.22;5076831;28;20040;-80
2023/11/06 05:34:06;;;;;;;0.00;0.00;;;;;;;8.51;100.00;99513.72;5076819;28;20038;-80
2023/11/06 05:36:33;;;;;;;0.00;0.00;;;;;;;8.49;100.00;99519.25;5061110;28;20485;-79
2023/11/06 05:38:58;;;;;;;0.00;0.00;;;;;;;8.51;100.00;99522.56;5055275;28;20061;-81
2023/11/06 05:41:25;;;;;;;0.00;0.00;;;;;;;8.50;100.00;99520.91;5056472;28;20017;-79
2023/11/06 05:43:50;;;;;;;0.00;0.00;;;;;;;8.52;100.00;99518.84;5077161;28;20085;-79
2023/11/06 05:46:16;;;;;;;0.00;0.00;;;;;;;8.49;100.00;99534.53;5076026;28;20434;-80
2023/11/06 05:48:41;;;;;;;0.00;0.00;;;;;;;8.50;100.00;99541.53;5061353;28;20494;-81
2023/11/06 05:51:07;;;;;;;0.00;0.00;;;;;;;8.50;100.00;99537.00;5056011;28;20050;-80
2023/11/06 05:53:32;;;;;;;0.00;0.00;;;;;;;8.53;100.00;99535.75;5068459;28;20084;-81
2023/11/06 05:55:57;;;;;;;0.00;0.00;;;;;;;8.55;100.00;99531.84;5071899;28;20078;-78
2023/11/06 05:58:23;;;;;;;0.00;0.00;;;;;;;8.52;100.00;99532.25;5055400;28;20456;-80
2023/11/06 06:00:48;;;;;;;0.00;0.00;;;;;;;8.53;100.00;99530.41;5076838;28;20107;-80
2023/11/06 06:03:15;;;;;;;0.00;0.00;;;;;;;8.55;100.00;99539.06;5076424;28;20032;-81
2023/11/06 06:05:42;;;;;;;0.00;0.00;;;;;;;8.53;100.00;99536.63;5068324;28;20443;-82
2023/11/06 06:08:09;;;;;;;0.00;0.00;;;;;;;8.52;100.00;99542.97;5058744;28;20459;-78
2023/11/06 06:10:34;;;;;;;0.00;0.00;;;;;;;8.53;100.00;99535.75;5074217;28;20032;-80
2023/11/06 06:12:59;;;;;;;0.00;0.00;;;;;;;8.50;100.00;99541.53;5081402;28;20489;-80
2023/11/06 06:15:25;;;;;;;0.00;0.00;;;;;;;8.49;100.00;99535.34;5079103;28;20423;-81
2023/11/06 06:17:50;;;;;;;0.00;0.00;;;;;;;8.51;100.00;99554.75;5080963;28;20025;-78
2023/11/06 06:20:15;;;;;;;0.00;0.00;;;;;;;8.54;100.00;99574.97;5082731;28;20028;-79
2023/11/06 06:22:41;;;;;;;0.00;0.00;;;;;;;8.52;100.00;99561.75;5083005;28;20367;-81
2023/11/06 06:25:08;;;;;;;0.00;0.00;;;;;;;8.52;100.00;99572.47;5070970;28;20040;-78
2023/11/06 06:27:34;;;;;;;0.00;0.00;;;;;;;8.55;100.00;99572.06;5079393;28;20043;-79
2023/11/06 06:29:59;;;;;;;0.00;0.00;;;;;;;8.57;100.00;99569.22;5118109;28;20038;-79
2023/11/06 06:32:25;;;;;;;0.00;0.00;;;;;;;8.62;100.00;99557.88;5114160;28;20483;-78
2023/11/06 06:34:50;;;;;;;0.00;0.00;;;;;;;8.64;100.00;99563.88;5096432;28;20037;-79
2023/11/06 06:37:15;;;;;;;0.00;0.00;;;;;;;8.64;100.00;99574.63;5083216;28;20469;-80
2023/11/06 06:39:41;;;;;;;0.00;0.00;;;;;;;8.65;100.00;99566.34;5072263;28;20028;-81
2023/11/06 06:42:06;;;;;;;0.00;0.00;;;;;;;8.63;100.00;99573.75;5062511;28;20029;-80
2023/11/06 06:44:32;;;;;;;0.00;0.00;;;;;;;8.63;100.00;99568.41;5061163;28;20043;-82
2023/11/06 06:46:58;;;;;;;0.00;0.00;;;;;;;8.66;100.00;99573.38;5061422;28;20039;-81
2023/11/06 06:49:26;;;;;;;0.00;0.00;;;;;;;8.63;100.00;99578.31;5082130;28;20108;-80
2023/11/06 06:51:54;;;;;;;0.00;0.00;;;;;;;8.56;100.00;99583.66;5083270;28;20327;-81
2023/11/06 06:54:20;;;;;;;0.00;0.00;;;;;;;8.61;100.00;99569.63;5069250;28;20032;-80
2023/11/06 06:56:46;;;;;;;0.00;0.00;;;;;;;8.61;100.00;99564.25;5066379;28;20021;-83
2023/11/06 06:59:11;;;;;;;0.00;0.00;;;;;;;8.56;100.00;99595.22;5074806;28;20029;-82
2023/11/06 07:01:37;;;;;;;0.00;0.00;;;;;;;8.57;100.00;99580.75;5074787;28;20039;-83
2023/11/06 07:04:02;;;;;;;0.00;0.00;;;;;;;8.64;100.00;99580.81;5064397;28;20424;-82
2023/11/06 07:06:28;;;;;;;0.00;0.00;;;;;;;8.61;100.00;99589.25;5062406;28;20025;-85
2023/11/06 07:08:56;;;;;;;0.00;0.00;;;;;;;8.68;100.00;99581.22;5069676;28;20028;-81
2023/11/06 07:11:22;;;;;;;0.00;0.00;;;;;;;8.75;100.00;99592.81;5078020;28;20078;-81
2023/11/06 07:13:47;;;;;;;0.00;0.00;;;;;;;8.76;100.00;99599.81;5076630;28;20025;-84
2023/11/06 07:16:14;;;;;;;0.00;0.00;;;;;;;8.78;100.00;99593.22;5079560;28;20032;-81
2023/11/06 07:18:39;;;;;;;0.00;0.00;;;;;;;8.84;100.00;99590.75;5060928;28;20060;-81
2023/11/06 07:21:05;;;;;;;0.00;0.00;;;;;;;8.91;100.00;99592.44;5063234;28;20033;-81
2023/11/06 07:23:30;;;;;;;0.00;0.00;;;;;;;8.96;100.00;99589.16;5077016;28;20024;-83
2023/11/06 07:25:55;;;;;;;0.00;0.00;;;;;;;8.95;100.00;99608.94;5072639;28;20047;-81
2023/11/06 07:28:21;;;;;;;0.00;0.00;;;;;;;8.95;100.00;99608.94;5068586;28;20094;-85
2023/11/06 07:30:46;;;;;;;0.00;0.00;;;;;;;8.99;100.00;99605.66;5071492;28;20051;-82
2023/11/06 07:33:12;;;;;;;0.00;0.00;;;;;;;9.00;100.00;99615.41;5064893;28;20056;-82
2023/11/06 07:35:37;;;;;;;0.00;0.00;;;;;;;9.10;100.00;99612.31;5077867;28;20016;-81
2023/11/06 07:38:03;;;;;;;0.00;0.00;;;;;;;9.25;100.00;99619.38;5071478;28;20064;-81
2023/11/06 07:40:28;;;;;;;0.00;0.00;;;;;;;9.25;100.00;99604.09;5080827;28;20035;-84
2023/11/06 07:42:54;;;;;;;0.00;0.00;;;;;;;9.28;100.00;99613.59;5075671;28;20028;-82
2023/11/06 07:45:19;;;;;;;0.00;0.00;;;;;;;9.23;100.00;99615.03;5072964;28;20029;-80
2023/11/06 07:47:46;;;;;;;0.00;0.00;;;;;;;9.30;100.00;99612.38;5096666;28;20025;-82
2023/11/06 07:50:11;;;;;;;0.00;0.00;;;;;;;9.55;100.00;99609.91;5082347;28;20060;-83
2023/11/06 07:52:36;;;;;;;0.00;0.00;;;;;;;10.10;100.00;99617.75;5063845;28;20043;-85
2023/11/06 07:55:04;;;;;;;0.00;0.00;;;;;;;10.50;100.00;99623.06;5066948;28;20024;-80
2023/11/06 07:57:29;;;;;;;0.00;0.00;;;;;;;10.35;100.00;99604.50;5070344;28;20064;-82
2023/11/06 07:59:54;;;;;;;0.00;0.00;;;;;;;10.52;100.00;99608.38;5080153;28;20047;-84
2023/11/06 08:02:20;;;;;;;0.00;0.00;;;;;;;10.58;100.00;99597.81;5079816;28;20025;-82
2023/11/06 08:04:45;;;;;;;0.00;0.00;;;;;;;11.01;100.00;99594.53;5083510;28;20025;-83
2023/11/06 08:07:13;;;;;;;0.00;0.00;;;;;;;10.56;100.00;99603.41;5072422;28;20073;-82
2023/11/06 08:09:39;;;;;;;0.00;0.00;;;;;;;10.59;100.00;99604.84;5083694;28;20024;-80
2023/11/06 08:12:08;;;;;;;0.00;0.00;;;;;;;10.43;100.00;99614.22;5082388;28;20029;-80
2023/11/06 08:14:34;;;;;;;0.00;0.00;;;;;;;10.14;100.00;99615.47;5085832;28;20064;-80
2023/11/06 08:17:00;;;;;;;0.00;0.00;;;;;;;9.96;100.00;99634.94;5082315;28;20040;-79
2023/11/06 08:19:25;;;;;;;0.00;0.00;;;;;;;9.92;100.00;99628.31;5085262;28;20088;-81
2023/11/06 08:21:50;;;;;;;0.00;0.00;;;;;;;9.98;100.00;99624.78;5075832;28;20081;-78
2023/11/06 08:24:16;;;;;;;0.00;0.00;;;;;;;10.15;100.00;99630.56;5076307;28;20067;-78
2023/11/06 08:26:43;;;;;;;0.00;0.00;;;;;;;9.95;100.00;99625.22;5065993;28;20472;-81
2023/11/06 08:29:09;;;;;;;0.00;0.00;;;;;;;9.98;100.00;99632.84;5075427;28;20557;-80
2023/11/06 08:31:34;;;;;;;0.00;0.00;;;;;;;9.70;100.00;99636.59;5078154;28;20071;-81
2023/11/06 08:34:00;;;;;;;0.00;0.00;;;;;;;9.98;100.00;99630.16;5069175;28;20118;-81
2023/11/06 08:36:26;;;;;;;0.00;0.00;;;;;;;10.00;100.00;99625.41;5080842;28;20021;-80
2023/11/06 08:38:52;;;;;;;0.00;0.00;;;;;;;10.19;100.00;99627.28;5080622;28;20048;-80
2023/11/06 08:41:17;;;;;;;0.00;0.00;;;;;;;10.37;100.00;99617.72;5083350;28;20036;-80
2023/11/06 08:43:42;;;;;;;0.00;0.00;;;;;;;10.67;100.00;99631.53;5086063;28;20028;-78
2023/11/06 08:46:08;;;;;;;0.00;0.00;;;;;;;10.37;100.00;99623.94;5079938;28;21413;-82
2023/11/06 08:48:33;;;;;;;0.00;0.00;;;;;;;10.61;100.00;99619.75;5081120;28;20039;-82
2023/11/06 08:50:59;;;;;;;0.00;0.00;;;;;;;10.47;100.00;99623.50;5074818;28;20587;-83
2023/11/06 08:53:24;;;;;;;0.00;0.00;;;;;;;10.42;100.00;99615.25;5074374;28;20045;-80
2023/11/06 08:55:50;;;;;;;0.00;0.00;;;;;;;10.57;100.00;99623.88;5080193;28;20048;-81
2023/11/06 08:58:19;;;;;;;0.00;0.00;;;;;;;10.46;100.00;99630.75;5084110;28;20078;-83
2023/11/06 09:00:45;;;;;;;0.00;0.00;;;;;;;10.56;100.00;99638.41;5089490;28;20024;-80
2023/11/06 09:03:12;;;;;;;0.00;0.00;;;;;;;10.85;100.00;99638.88;5084396;28;20025;-80
2023/11/06 09:05:38;;;;;;;0.00;0.00;;;;;;;10.86;100.00;99632.50;5092673;28;20072;-77
2023/11/06 09:08:03;;;;;;;0.00;0.00;;;;;;;10.63;100.00;99633.78;5087263;28;20028;-79
2023/11/06 09:10:30;;;;;;;0.00;0.00;;;;;;;10.67;100.00;99651.19;5084884;28;20059;-79
2023/11/06 09:12:57;;;;;;;0.00;0.00;;;;;;;10.43;100.00;99636.56;5075297;28;20041;-82
2023/11/06 09:15:22;;;;;;;0.00;0.00;;;;;;;10.25;100.00;99655.19;5078429;28;20032;-79
2023/11/06 09:17:48;;;;;;;0.00;0.00;;;;;;;10.04;100.00;99662.44;5079639;28;20476;-80
2023/11/06 09:20:13;;;;;;;0.00;0.00;;;;;;;10.13;100.00;99646.91;5071363;28;20443;-80
2023/11/06 09:22:40;;;;;;;0.00;0.00;;;;;;;9.94;100.00;99669.25;5079402;28;20036;-81
2023/11/06 09:25:06;;;;;;;0.00;0.00;;;;;;;9.96;100.00;99686.00;5078812;28;20040;-83
2023/11/06 09:27:33;;;;;;;0.00;0.00;;;;;;;9.92;100.00;99674.00;5071080;28;20028;-84
2023/11/06 09:29:59;;;;;;;0.00;0.00;;;;;;;9.87;100.00;99667.41;5077502;28;20059;-82
2023/11/06 09:32:24;;;;;;;0.00;0.00;;;;;;;9.96;100.00;99673.38;5084030;28;21003;-80
2023/11/06 09:34:50;;;;;;;0.00;0.00;;;;;;;10.00;100.00;99693.44;5080494;28;20084;-79
2023/11/06 09:37:15;;;;;;;0.00;0.00;;;;;;;10.08;100.00;99689.72;5080449;28;20206;-79
2023/11/06 09:39:43;;;;;;;0.00;0.00;;;;;;;10.09;100.00;99694.06;5056970;28;20037;-83
2023/11/06 09:42:11;;;;;;;0.00;0.00;;;;;;;10.14;100.00;99696.13;5066305;28;20108;-79
2023/11/06 09:44:38;;;;;;;0.00;0.00;;;;;;;10.13;100.00;99699.84;5072433;28;20094;-79
2023/11/06 09:47:07;;;;;;;0.00;0.00;;;;;;;10.24;100.00;99693.84;5060765;28;20028;-80
2023/11/06 09:49:39;;;;;;;0.00;0.00;;;;;;;10.22;100.00;99702.13;5064236;28;20114;-79
2023/11/06 09:52:06;;;;;;;0.00;0.00;;;;;;;10.27;100.00;99699.69;5067550;28;20032;-80
2023/11/06 09:54:31;;;;;;;0.00;0.00;;;;;;;10.25;100.00;99725.91;5075709;28;20036;-78
2023/11/06 09:56:57;;;;;;;0.00;0.00;;;;;;;10.28;100.00;99719.31;5063160;28;20552;-80
2023/11/06 09:59:22;;;;;;;0.00;0.00;;;;;;;10.14;100.00;99737.31;5076428;22;20061;-36
2023/11/06 10:01:49;;;;;;;0.00;0.00;;;;;;;10.21;100.00;99727.34;5050083;28;20033;-37
2023/11/06 10:04:15;;;;;;;0.00;0.00;;;;;;;10.12;100.00;99739.34;5049719;28;20779;-37
2023/11/06 10:06:42;;;;;;;0.00;0.00;;;;;;;10.07;100.00;99750.72;5052670;28;20117;-38
2023/11/06 10:09:21;;;;;;;0.00;0.00;;;;;;;10.04;100.00;99758.38;5055165;28;20414;-37
2023/11/06 10:11:47;;;;;;;0.00;0.00;;;;;;;9.95;100.00;99759.59;5049507;28;20025;-38
2023/11/06 10:14:12;;;;;;;0.00;0.00;;;;;;;10.05;100.00;99758.16;5049868;28;20108;-36
2023/11/06 10:16:37;;;;;;;0.00;0.00;;;;;;;10.00;100.00;99759.81;5048032;28;20025;-37
2023/11/06 10:19:10;;;;;;;0.00;0.00;;;;;;;9.96;100.00;99766.63;5049102;28;20021;-38
2023/11/06 10:21:36;;;;;;;0.00;0.00;;;;;;;9.91;100.00;99761.88;5048881;28;20025;-35
2023/11/06 10:24:02;;;;;;;0.00;0.00;;;;;;;9.91;100.00;99769.13;5049275;28;20095;-37
2023/11/06 10:26:31;;;;;;;0.00;0.00;;;;;;;9.98;100.00;99802.19;5049372;28;20079;-37
2023/11/06 10:29:17;;;;;;;0.00;0.00;;;;;;;9.93;100.00;99772.44;5050194;28;20056;-37
2023/11/06 10:31:44;;;;;;;0.00;0.00;;;;;;;9.97;100.00;99781.72;5047192;28;20545;-37
2023/11/06 10:34:37;;;;;;;0.00;0.00;;;;;;;10.02;100.00;99771.19;5053341;28;20087;-37
2023/11/06 10:37:10;;;;;;;0.00;0.00;;;;;;;9.82;100.00;99768.44;5058758;28;20119;-37
2023/11/06 10:39:40;;;;;;;0.00;0.00;;;;;;;9.78;100.00;99802.97;5052326;28;20039;-40
2023/11/06 10:42:07;;;;;;;0.00;0.00;;;;;;;9.85;100.00;99793.06;5042943;28;20143;-41
2023/11/06 10:44:34;;;;;;;0.00;0.00;;;;;;;9.85;100.00;99787.72;5044974;28;20039;-41
2023/11/06 10:47:06;;;;;;;0.00;0.00;;;;;;;9.93;100.00;99777.81;5043085;28;20497;-39
2023/11/06 10:49:41;;;;;;;0.00;0.00;;;;;;;9.81;100.00;99794.50;5037546;28;20481;-41
2023/11/06 10:52:07;;;;;;;0.00;0.00;;;;;;;9.82;100.00;99790.81;5043569;28;20029;-42
2023/11/06 10:54:35;;;;;;;0.00;0.00;;;;;;;9.86;100.00;99789.34;5046926;28;20048;-41
2023/11/06 10:57:01;;;;;;;0.00;0.00;;;;;;;10.00;100.00;99782.13;5048213;28;20430;-41
2023/11/06 10:59:26;;;;;;;0.00;0.00;;;;;;;10.08;100.00;99786.50;5045888;28;20144;-41
2023/11/06 11:02:02;;;;;;;0.00;0.00;;;;;;;10.13;100.00;99785.88;5044986;28;20283;-41
2023/11/06 11:04:29;;;;;;;0.00;0.00;;;;;;;10.10;100.00;99790.63;5045532;28;20043;-41
2023/11/06 11:06:55;;;;;;;0.00;0.00;;;;;;;10.14;100.00;99780.31;5043930;28;20437;-41
2023/11/06 11:09:22;;;;;;;0.00;0.00;;;;;;;10.08;100.00;99791.88;5046969;28;20041;-42
2023/11/06 11:11:48;;;;;;;0.00;0.00;;;;;;;10.02;100.00;99792.69;5045561;28;20044;-41
2023/11/06 11:14:14;;;;;;;0.00;0.00;;;;;;;10.11;100.00;99796.88;5046031;28;20033;-42
2023/11/06 11:16:41;;;;;;;0.00;0.00;;;;;;;10.17;100.00;99803.28;5045523;28;20040;-42
2023/11/06 11:19:31;;;;;;;0.00;0.00;;;;;;;10.29;100.00;99807.88;5041769;28;20396;-42
2023/11/06 11:22:08;;;;;;;0.00;0.00;;;;;;;10.28;100.00;99803.50;5041346;28;20140;-41
2023/11/06 11:24:44;;;;;;;0.00;0.00;;;;;;;10.24;100.00;99815.69;5042913;28;20135;-42
2023/11/06 11:27:13;;;;;;;0.00;0.00;;;;;;;10.23;100.00;99816.72;5044029;28;20036;-42